createdAt,value
2018-12-12T00:01:22.980Z,2.30
2018-12-12T00:03:52.284Z,2.30
2018-12-12T00:06:21.595Z,2.40
2018-12-12T00:08:50.862Z,2.30
2018-12-12T00:11:20.185Z,2.10
2018-12-12T00:13:49.422Z,2.00
2018-12-12T00:16:18.656Z,2.10
2018-12-12T00:18:47.884Z,2.00
2018-12-12T00:21:17.140Z,2.00
2018-12-12T00:23:46.737Z,2.10
2018-12-12T00:26:15.999Z,2.00
2018-12-12T00:28:45.238Z,2.10
2018-12-12T00:31:14.561Z,2.00
2018-12-12T00:33:43.784Z,2.00
2018-12-12T00:36:13.026Z,2.00
2018-12-12T00:38:42.254Z,1.90
2018-12-12T00:41:11.490Z,1.80
2018-12-12T00:43:40.751Z,1.90
2018-12-12T00:46:09.982Z,1.90
2018-12-12T00:48:39.200Z,1.90
2018-12-12T00:51:08.415Z,1.90
2018-12-12T00:53:37.667Z,1.80
2018-12-12T00:56:06.928Z,1.80
2018-12-12T00:58:36.186Z,1.90
2018-12-12T01:01:05.469Z,1.90
2018-12-12T01:03:34.704Z,1.80
2018-12-12T01:06:03.932Z,1.90
2018-12-12T01:08:33.170Z,1.90
2018-12-12T01:11:07.585Z,1.90
2018-12-12T01:13:36.980Z,2.00
2018-12-12T01:16:06.223Z,2.10
2018-12-12T01:18:35.459Z,2.10
2018-12-12T01:21:04.757Z,2.20
2018-12-12T01:23:34.152Z,2.20
2018-12-12T01:26:03.441Z,2.00
2018-12-12T01:28:32.824Z,2.00
2018-12-12T01:31:02.061Z,2.10
2018-12-12T01:33:31.316Z,2.20
2018-12-12T01:36:00.600Z,2.20
2018-12-12T01:38:29.878Z,2.10
2018-12-12T01:40:59.180Z,2.30
2018-12-12T01:43:28.410Z,2.40
2018-12-12T01:45:57.641Z,2.40
2018-12-12T01:48:26.861Z,2.30
2018-12-12T01:50:56.128Z,2.30
2018-12-12T01:53:25.364Z,2.40
2018-12-12T01:55:54.586Z,2.40
2018-12-12T01:58:23.793Z,2.40
2018-12-12T02:00:53.042Z,2.30
2018-12-12T02:03:22.260Z,2.20
2018-12-12T02:05:51.474Z,2.30
2018-12-12T02:08:20.944Z,2.20
2018-12-12T02:10:50.414Z,2.30
2018-12-12T02:13:31.784Z,2.40
2018-12-12T02:16:01.441Z,2.40
2018-12-12T02:18:32.164Z,2.50
2018-12-12T02:21:01.473Z,2.50
2018-12-12T02:23:30.701Z,2.20
2018-12-12T02:25:59.938Z,2.20
2018-12-12T02:28:29.325Z,2.20
2018-12-12T02:30:58.550Z,2.00
2018-12-12T02:33:27.781Z,2.00
2018-12-12T02:35:56.997Z,1.80
2018-12-12T02:38:26.261Z,1.70
2018-12-12T02:40:55.480Z,1.70
2018-12-12T02:43:24.766Z,1.80
2018-12-12T02:45:53.969Z,2.10
2018-12-12T02:48:23.185Z,2.30
2018-12-12T02:50:52.413Z,2.40
2018-12-12T02:53:21.617Z,2.30
2018-12-12T02:55:50.828Z,2.40
2018-12-12T02:58:20.077Z,2.30
2018-12-12T03:00:49.307Z,2.40
2018-12-12T03:03:18.514Z,2.40
2018-12-12T03:05:47.749Z,2.50
2018-12-12T03:08:16.994Z,2.50
2018-12-12T03:10:46.205Z,2.40
2018-12-12T03:13:15.427Z,2.50
2018-12-12T03:15:44.705Z,2.50
2018-12-12T03:18:14.002Z,2.60
2018-12-12T03:20:43.237Z,2.60
2018-12-12T03:23:12.492Z,2.50
2018-12-12T03:25:41.754Z,2.40
2018-12-12T03:28:11.003Z,2.20
2018-12-12T03:30:40.262Z,2.30
2018-12-12T03:33:09.515Z,2.40
2018-12-12T03:35:38.753Z,2.60
2018-12-12T03:38:07.960Z,2.60
2018-12-12T03:40:37.565Z,2.60
2018-12-12T03:43:06.927Z,2.70
2018-12-12T03:45:36.163Z,2.60
2018-12-12T03:48:05.393Z,2.60
2018-12-12T03:50:34.633Z,2.60
2018-12-12T03:53:03.885Z,2.60
2018-12-12T03:55:33.089Z,2.50
2018-12-12T03:58:02.357Z,2.60
2018-12-12T04:00:31.557Z,2.60
2018-12-12T04:03:00.781Z,2.40
2018-12-12T04:05:30.004Z,2.20
2018-12-12T04:07:59.266Z,2.40
2018-12-12T04:10:28.514Z,2.60
2018-12-12T04:12:57.758Z,2.60
2018-12-12T04:15:26.993Z,2.50
2018-12-12T04:17:56.210Z,2.30
2018-12-12T04:20:25.470Z,2.20
2018-12-12T04:22:58.342Z,2.30
2018-12-12T04:25:27.697Z,2.30
2018-12-12T04:27:56.929Z,2.50
2018-12-12T04:30:26.183Z,2.60
2018-12-12T04:32:55.408Z,2.80
2018-12-12T04:35:24.625Z,2.80
2018-12-12T04:37:53.849Z,2.80
2018-12-12T04:40:23.151Z,2.80
2018-12-12T04:42:52.385Z,2.90
2018-12-12T04:45:21.621Z,2.90
2018-12-12T04:47:51.100Z,2.90
2018-12-12T04:50:20.521Z,2.80
2018-12-12T04:52:49.738Z,2.60
2018-12-12T04:55:18.960Z,2.60
2018-12-12T04:57:48.192Z,2.80
2018-12-12T05:00:17.447Z,2.70
2018-12-12T05:02:47.280Z,2.90
2018-12-12T05:05:16.533Z,2.70
2018-12-12T05:07:45.767Z,2.60
2018-12-12T05:10:15.012Z,2.70
2018-12-12T05:12:44.218Z,2.70
2018-12-12T05:15:13.669Z,2.70
2018-12-12T05:17:43.601Z,2.80
2018-12-12T05:20:12.882Z,2.80
2018-12-12T05:22:42.129Z,2.90
2018-12-12T05:25:11.400Z,2.90
2018-12-12T05:27:40.609Z,3.00
2018-12-12T05:30:09.879Z,2.90
2018-12-12T05:32:39.081Z,2.80
2018-12-12T05:35:08.313Z,2.90
2018-12-12T05:37:37.541Z,3.00
2018-12-12T05:40:07.566Z,2.80
2018-12-12T05:42:37.040Z,2.90
2018-12-12T05:45:06.919Z,2.90
2018-12-12T05:47:36.157Z,2.90
2018-12-12T05:50:05.624Z,2.90
2018-12-12T05:52:34.903Z,2.80
2018-12-12T05:55:04.461Z,3.00
2018-12-12T05:57:33.708Z,2.90
2018-12-12T06:00:03.517Z,3.00
2018-12-12T06:02:32.809Z,2.90
2018-12-12T06:05:02.047Z,3.00
2018-12-12T06:07:31.360Z,3.00
2018-12-12T06:10:00.610Z,3.00
2018-12-12T06:12:29.838Z,3.00
2018-12-12T06:14:59.087Z,3.10
2018-12-12T06:17:29.150Z,3.20
2018-12-12T06:19:58.730Z,3.20
2018-12-12T06:22:29.011Z,3.00
2018-12-12T06:24:58.309Z,3.00
2018-12-12T06:27:27.511Z,2.90
2018-12-12T06:29:56.799Z,3.00
2018-12-12T06:32:26.018Z,3.20
2018-12-12T06:34:55.256Z,3.20
2018-12-12T06:37:24.504Z,3.30
2018-12-12T06:39:53.737Z,3.30
2018-12-12T06:42:22.978Z,3.20
2018-12-12T06:44:52.217Z,3.10
2018-12-12T06:47:21.453Z,3.00
2018-12-12T06:49:50.648Z,2.90
2018-12-12T06:52:19.857Z,2.70
2018-12-12T06:54:49.132Z,2.70
2018-12-12T06:57:18.452Z,2.60
2018-12-12T06:59:47.728Z,2.60
2018-12-12T07:02:16.965Z,2.60
2018-12-12T07:04:46.237Z,2.50
2018-12-12T07:07:15.792Z,2.40
2018-12-12T07:09:45.107Z,2.50
2018-12-12T07:12:14.325Z,2.60
2018-12-12T07:14:43.569Z,2.90
2018-12-12T07:17:12.825Z,3.10
2018-12-12T07:19:42.084Z,3.20
2018-12-12T07:22:11.326Z,3.20
2018-12-12T07:24:40.562Z,3.30
2018-12-12T07:27:09.792Z,3.20
2018-12-12T07:29:39.176Z,3.30
2018-12-12T07:32:08.577Z,3.30
2018-12-12T07:34:37.889Z,3.30
2018-12-12T07:37:07.211Z,3.40
2018-12-12T07:39:36.514Z,3.50
2018-12-12T07:42:05.816Z,3.50
2018-12-12T07:44:35.137Z,3.40
2018-12-12T07:47:04.461Z,3.40
2018-12-12T07:49:33.836Z,3.40
2018-12-12T07:52:03.280Z,3.50
2018-12-12T07:54:32.533Z,3.50
2018-12-12T07:57:01.787Z,3.60
2018-12-12T07:59:31.039Z,3.70
2018-12-12T08:02:00.301Z,3.50
2018-12-12T08:04:29.526Z,3.30
2018-12-12T08:06:58.796Z,3.30
2018-12-12T08:09:28.066Z,3.60
2018-12-12T08:11:57.338Z,3.60
2018-12-12T08:14:26.596Z,3.60
2018-12-12T08:16:55.886Z,3.60
2018-12-12T08:19:25.137Z,3.50
2018-12-12T08:21:54.384Z,3.50
2018-12-12T08:24:23.650Z,3.30
2018-12-12T08:26:52.949Z,3.30
2018-12-12T08:29:22.196Z,3.50
2018-12-12T08:31:51.421Z,3.70
2018-12-12T08:34:20.661Z,3.70
2018-12-12T08:36:49.929Z,3.70
2018-12-12T08:39:19.182Z,3.60
2018-12-12T08:41:48.421Z,3.60
2018-12-12T08:44:17.673Z,3.60
2018-12-12T08:46:46.953Z,3.60
2018-12-12T08:49:16.211Z,3.60
2018-12-12T08:51:45.538Z,3.60
2018-12-12T08:54:14.814Z,3.60
2018-12-12T08:56:44.059Z,3.60
2018-12-12T08:59:13.371Z,3.60
2018-12-12T09:01:42.736Z,3.60
2018-12-12T09:04:12.074Z,3.70
2018-12-12T09:06:41.521Z,3.80
2018-12-12T09:09:10.783Z,3.80
2018-12-12T09:11:40.183Z,3.80
2018-12-12T09:14:09.689Z,3.50
2018-12-12T09:16:39.181Z,3.40
2018-12-12T09:19:08.442Z,3.40
2018-12-12T09:21:37.722Z,3.60
2018-12-12T09:24:06.987Z,3.70
2018-12-12T09:26:36.267Z,3.70
2018-12-12T09:29:05.553Z,3.70
2018-12-12T09:31:34.860Z,3.60
2018-12-12T09:34:04.114Z,3.70
2018-12-12T09:36:33.368Z,3.60
2018-12-12T09:39:02.610Z,3.70
2018-12-12T09:41:31.984Z,3.70
2018-12-12T09:44:01.280Z,3.70
2018-12-12T09:46:30.573Z,3.80
2018-12-12T09:48:59.805Z,3.90
2018-12-12T09:51:29.067Z,3.80
2018-12-12T09:53:58.304Z,3.70
2018-12-12T09:56:27.577Z,4.10
2018-12-12T09:58:56.863Z,4.00
2018-12-12T10:01:26.128Z,4.10
2018-12-12T10:03:55.390Z,4.20
2018-12-12T10:06:24.694Z,4.20
2018-12-12T10:08:53.972Z,4.30
2018-12-12T10:11:23.327Z,4.20
2018-12-12T10:13:52.669Z,4.10
2018-12-12T10:16:21.938Z,4.00
2018-12-12T10:18:51.224Z,4.00
2018-12-12T10:21:20.479Z,3.80
2018-12-12T10:23:49.740Z,4.00
2018-12-12T10:26:18.997Z,4.10
2018-12-12T10:28:48.241Z,4.00
2018-12-12T10:31:17.488Z,4.00
2018-12-12T10:33:46.742Z,4.00
2018-12-12T10:36:16.060Z,4.00
2018-12-12T10:38:45.321Z,3.90
2018-12-12T10:41:14.630Z,4.00
2018-12-12T10:43:43.913Z,4.00
2018-12-12T10:46:13.190Z,4.00
2018-12-12T10:48:42.449Z,3.90
2018-12-12T10:51:11.693Z,4.10
2018-12-12T10:53:41.052Z,4.10
2018-12-12T10:56:10.342Z,4.20
2018-12-12T10:58:39.569Z,4.30
2018-12-12T11:01:14.195Z,4.30
2018-12-12T11:03:44.356Z,4.30
2018-12-12T11:06:14.108Z,4.30
2018-12-12T11:08:43.392Z,4.40
2018-12-12T11:11:12.638Z,4.30
2018-12-12T11:13:41.929Z,4.30
2018-12-12T11:16:11.234Z,4.30
2018-12-12T11:18:40.602Z,4.30
2018-12-12T11:21:09.931Z,4.40
2018-12-12T11:23:39.323Z,4.40
2018-12-12T11:26:08.596Z,4.20
2018-12-12T11:28:37.887Z,4.20
2018-12-12T11:31:07.308Z,4.30
2018-12-12T11:33:36.543Z,4.40
2018-12-12T11:36:05.890Z,4.40
2018-12-12T11:38:35.309Z,4.40
2018-12-12T11:41:04.558Z,4.10
2018-12-12T11:43:33.815Z,3.90
2018-12-12T11:46:03.137Z,3.80
2018-12-12T11:48:32.426Z,3.60
2018-12-12T11:51:01.677Z,3.80
2018-12-12T11:53:31.015Z,3.70
2018-12-12T11:56:00.305Z,3.90
2018-12-12T11:58:29.573Z,4.00
2018-12-12T12:00:58.865Z,4.10
2018-12-12T12:03:28.133Z,4.10
2018-12-12T12:05:57.374Z,4.10
2018-12-12T12:08:26.702Z,4.00
2018-12-12T12:10:56.047Z,4.00
2018-12-12T12:13:25.344Z,4.10
2018-12-12T12:15:54.585Z,4.10
2018-12-12T12:18:23.898Z,4.10
2018-12-12T12:20:53.193Z,4.10
2018-12-12T12:23:22.518Z,4.20
2018-12-12T12:25:51.865Z,4.40
2018-12-12T12:28:21.191Z,4.40
2018-12-12T12:30:50.448Z,4.50
2018-12-12T12:33:19.780Z,4.70
2018-12-12T12:35:49.105Z,4.70
2018-12-12T12:38:18.515Z,4.60
2018-12-12T12:40:47.775Z,4.70
2018-12-12T12:43:17.019Z,4.60
2018-12-12T12:45:46.277Z,4.30
2018-12-12T12:48:15.582Z,4.30
2018-12-12T12:50:44.913Z,4.30
2018-12-12T12:53:14.179Z,4.40
2018-12-12T12:55:43.429Z,4.30
2018-12-12T12:58:12.677Z,4.40
2018-12-12T13:00:42.029Z,4.40
2018-12-12T13:03:11.278Z,4.20
2018-12-12T13:05:40.536Z,4.10
2018-12-12T13:08:09.801Z,4.10
2018-12-12T13:10:39.425Z,4.10
2018-12-12T13:13:09.052Z,4.00
2018-12-12T13:15:38.686Z,4.00
2018-12-12T13:18:08.284Z,4.10
2018-12-12T13:20:37.589Z,4.20
2018-12-12T13:23:06.844Z,4.20
2018-12-12T13:25:36.150Z,4.20
2018-12-12T13:28:05.441Z,4.10
2018-12-12T13:30:34.722Z,4.10
2018-12-12T13:33:04.115Z,4.10
2018-12-12T13:35:33.379Z,4.20
2018-12-12T13:38:02.677Z,4.20
2018-12-12T13:40:31.994Z,4.30
2018-12-12T13:43:01.302Z,4.20
2018-12-12T13:45:30.547Z,4.10
2018-12-12T13:47:59.827Z,4.20
2018-12-12T13:50:29.073Z,4.10
2018-12-12T13:52:58.338Z,3.90
2018-12-12T13:55:27.560Z,3.80
2018-12-12T13:57:56.993Z,4.10
2018-12-12T14:00:26.278Z,4.10
2018-12-12T14:02:55.580Z,4.30
2018-12-12T14:05:24.830Z,4.30
2018-12-12T14:07:54.126Z,4.20
2018-12-12T14:10:23.385Z,4.10
2018-12-12T14:12:52.638Z,4.00
2018-12-12T14:15:22.032Z,4.00
2018-12-12T14:17:51.342Z,4.20
2018-12-12T14:20:20.631Z,4.30
2018-12-12T14:22:49.872Z,4.20
2018-12-12T14:25:19.145Z,3.90
2018-12-12T14:27:48.439Z,4.00
2018-12-12T14:30:17.763Z,4.10
2018-12-12T14:32:47.036Z,4.10
2018-12-12T14:35:16.334Z,3.90
2018-12-12T14:37:45.611Z,3.90
2018-12-12T14:40:14.945Z,3.80
2018-12-12T14:42:44.215Z,3.80
2018-12-12T14:45:13.499Z,3.90
2018-12-12T14:47:42.763Z,3.90
2018-12-12T14:50:12.037Z,3.80
2018-12-12T14:52:41.306Z,3.80
2018-12-12T14:55:10.645Z,3.90
2018-12-12T14:57:39.922Z,4.10
2018-12-12T15:00:09.335Z,4.10
2018-12-12T15:02:38.645Z,4.10
2018-12-12T15:05:08.187Z,4.20
2018-12-12T15:07:37.470Z,4.20
2018-12-12T15:10:06.884Z,4.10
2018-12-12T15:12:36.151Z,4.10
2018-12-12T15:15:05.745Z,4.00
2018-12-12T15:17:35.052Z,4.00
2018-12-12T15:20:04.651Z,4.00
2018-12-12T15:22:33.951Z,4.00
2018-12-12T15:25:03.327Z,4.00
2018-12-12T15:27:32.586Z,4.00
2018-12-12T15:30:01.861Z,4.00
2018-12-12T15:32:31.197Z,4.00
2018-12-12T15:35:00.431Z,3.90
2018-12-12T15:37:29.688Z,3.80
2018-12-12T15:39:58.960Z,3.80
2018-12-12T15:42:28.217Z,3.90
2018-12-12T15:44:57.489Z,3.70
2018-12-12T15:47:26.734Z,3.70
2018-12-12T15:49:56.019Z,3.80
2018-12-12T15:52:25.281Z,3.90
2018-12-12T15:54:54.569Z,3.80
2018-12-12T15:57:24.289Z,3.80
2018-12-12T15:59:53.591Z,3.80
2018-12-12T16:02:22.860Z,3.80
2018-12-12T16:04:52.101Z,3.90
2018-12-12T16:07:21.390Z,4.00
2018-12-12T16:09:50.632Z,3.90
2018-12-12T16:12:19.883Z,3.90
2018-12-12T16:14:49.248Z,3.80
2018-12-12T16:17:18.558Z,3.80
2018-12-12T16:19:47.837Z,3.80
2018-12-12T16:22:17.095Z,3.80
2018-12-12T16:24:46.359Z,3.90
2018-12-12T16:27:15.661Z,3.90
2018-12-12T16:29:44.941Z,3.70
2018-12-12T16:32:14.250Z,3.60
2018-12-12T16:34:43.493Z,3.70
2018-12-12T16:37:12.775Z,3.60
2018-12-12T16:39:42.044Z,3.60
2018-12-12T16:42:11.372Z,3.50
2018-12-12T16:44:40.606Z,3.50
2018-12-12T16:47:09.880Z,3.60
2018-12-12T16:49:39.160Z,3.60
2018-12-12T16:52:08.471Z,3.70
2018-12-12T16:54:37.782Z,3.70
2018-12-12T16:57:07.062Z,3.80
2018-12-12T16:59:36.366Z,3.70
2018-12-12T17:02:05.756Z,3.70
2018-12-12T17:04:35.116Z,3.80
2018-12-12T17:07:04.397Z,3.70
2018-12-12T17:09:33.663Z,3.70
2018-12-12T17:12:02.972Z,3.70
2018-12-12T17:14:32.213Z,3.60
2018-12-12T17:17:01.485Z,3.50
2018-12-12T17:19:30.801Z,3.50
2018-12-12T17:22:00.080Z,3.50
2018-12-12T17:24:29.372Z,3.70
2018-12-12T17:26:58.664Z,3.60
2018-12-12T17:29:28.148Z,3.80
2018-12-12T17:31:57.495Z,3.70
2018-12-12T17:34:26.770Z,3.70
2018-12-12T17:36:56.012Z,3.70
2018-12-12T17:39:25.304Z,3.60
2018-12-12T17:41:54.534Z,3.60
2018-12-12T17:44:23.812Z,3.60
2018-12-12T17:46:53.068Z,3.50
2018-12-12T17:49:22.370Z,3.60
2018-12-12T17:51:51.658Z,3.50
2018-12-12T17:54:20.948Z,3.40
2018-12-12T17:56:50.222Z,3.30
2018-12-12T17:59:19.493Z,3.30
2018-12-12T18:01:48.772Z,3.30
2018-12-12T18:04:18.141Z,3.40
2018-12-12T18:06:47.408Z,3.40
2018-12-12T18:09:16.719Z,3.50
2018-12-12T18:11:46.096Z,3.40
2018-12-12T18:14:15.414Z,3.50
2018-12-12T18:16:44.681Z,3.50
2018-12-12T18:19:13.933Z,3.50
2018-12-12T18:21:43.220Z,3.50
2018-12-12T18:24:12.485Z,3.50
2018-12-12T18:26:41.797Z,3.50
2018-12-12T18:29:11.056Z,3.50
2018-12-12T18:31:40.320Z,3.50
2018-12-12T18:34:09.608Z,3.40
2018-12-12T18:36:39.621Z,3.40
2018-12-12T18:39:08.923Z,3.50
2018-12-12T18:41:38.237Z,3.40
2018-12-12T18:44:07.514Z,3.40
2018-12-12T18:46:36.819Z,3.40
2018-12-12T18:49:06.210Z,3.40
2018-12-12T18:51:35.526Z,3.50
2018-12-12T18:54:04.829Z,3.50
2018-12-12T18:56:34.177Z,3.50
2018-12-12T18:59:03.488Z,3.50
2018-12-12T19:01:32.761Z,3.50
2018-12-12T19:04:02.073Z,3.50
2018-12-12T19:06:31.383Z,3.40
2018-12-12T19:09:00.663Z,3.50
2018-12-12T19:11:29.938Z,3.50
2018-12-12T19:14:04.766Z,3.70
2018-12-12T19:16:34.051Z,3.60
2018-12-12T19:19:03.312Z,3.50
2018-12-12T19:21:32.594Z,3.60
2018-12-12T19:24:01.896Z,3.60
2018-12-12T19:26:31.192Z,3.40
2018-12-12T19:29:00.541Z,3.50
2018-12-12T19:31:29.885Z,3.50
2018-12-12T19:33:59.200Z,3.50
2018-12-12T19:36:28.485Z,3.50
2018-12-12T19:38:57.763Z,3.50
2018-12-12T19:41:27.081Z,3.50
2018-12-12T19:43:56.372Z,3.50
2018-12-12T19:46:25.686Z,3.60
2018-12-12T19:48:54.967Z,3.50
2018-12-12T19:51:24.282Z,3.50
2018-12-12T19:53:53.559Z,3.40
2018-12-12T19:56:22.937Z,3.40
2018-12-12T19:58:52.223Z,3.30
2018-12-12T20:01:21.541Z,3.30
2018-12-12T20:03:51.226Z,3.30
2018-12-12T20:06:20.533Z,3.20
2018-12-12T20:08:50.012Z,3.40
2018-12-12T20:11:19.458Z,3.40
2018-12-12T20:13:48.797Z,3.30
2018-12-12T20:16:18.112Z,3.30
2018-12-12T20:18:47.804Z,3.40
2018-12-12T20:21:17.154Z,3.40
2018-12-12T20:23:46.523Z,3.20
2018-12-12T20:26:16.413Z,3.20
2018-12-12T20:28:45.654Z,3.20
2018-12-12T20:31:14.997Z,3.10
2018-12-12T20:33:44.348Z,3.10
2018-12-12T20:36:13.585Z,3.00
2018-12-12T20:38:42.898Z,3.00
2018-12-12T20:41:12.189Z,2.90
2018-12-12T20:43:41.434Z,2.90
2018-12-12T20:46:10.997Z,3.10
2018-12-12T20:48:40.395Z,3.20
2018-12-12T20:51:09.712Z,3.10
2018-12-12T20:53:39.132Z,3.00
2018-12-12T20:56:08.575Z,2.90
2018-12-12T20:58:38.054Z,3.00
2018-12-12T21:01:07.446Z,2.90
2018-12-12T21:03:36.753Z,3.00
2018-12-12T21:06:06.184Z,3.10
2018-12-12T21:08:35.513Z,3.10
2018-12-12T21:11:04.889Z,3.00
2018-12-12T21:13:34.369Z,3.00
2018-12-12T21:16:03.800Z,3.10
2018-12-12T21:18:33.114Z,3.10
2018-12-12T21:21:03.067Z,3.10
2018-12-12T21:23:32.400Z,3.00
2018-12-12T21:26:02.134Z,3.00
2018-12-12T21:28:31.405Z,2.90
2018-12-12T21:31:00.684Z,2.80
2018-12-12T21:33:29.962Z,3.00
2018-12-12T21:36:00.930Z,3.00
2018-12-12T21:38:30.431Z,3.00
2018-12-12T21:40:59.743Z,2.90
2018-12-12T21:43:29.030Z,2.70
2018-12-12T21:45:58.318Z,2.70
2018-12-12T21:48:28.506Z,2.70
2018-12-12T21:50:57.772Z,2.80
2018-12-12T21:53:27.240Z,2.80
2018-12-12T21:55:56.561Z,2.70
2018-12-12T21:58:25.887Z,2.80
2018-12-12T22:00:55.262Z,2.80
2018-12-12T22:03:24.514Z,2.70
2018-12-12T22:05:53.804Z,2.80
2018-12-12T22:08:23.080Z,2.80
2018-12-12T22:10:52.365Z,2.90
2018-12-12T22:13:21.605Z,2.90
2018-12-12T22:15:50.858Z,2.80
2018-12-12T22:18:20.103Z,2.90
2018-12-12T22:20:49.373Z,2.90
2018-12-12T22:23:18.631Z,3.00
2018-12-12T22:25:47.929Z,3.00
2018-12-12T22:28:17.925Z,2.90
2018-12-12T22:30:47.161Z,2.90
2018-12-12T22:33:16.569Z,2.80
2018-12-12T22:35:45.813Z,2.80
2018-12-12T22:38:15.094Z,2.90
2018-12-12T22:40:44.366Z,2.70
2018-12-12T22:43:13.687Z,2.60
2018-12-12T22:45:42.947Z,2.60
2018-12-12T22:48:12.217Z,2.50
2018-12-12T22:50:41.494Z,2.70
2018-12-12T22:53:10.742Z,2.70
2018-12-12T22:55:40.001Z,2.70
2018-12-12T22:58:09.275Z,2.60
2018-12-12T23:00:40.274Z,2.70
2018-12-12T23:03:09.543Z,2.70
2018-12-12T23:05:38.790Z,2.70
2018-12-12T23:08:08.031Z,2.70
2018-12-12T23:10:37.261Z,2.70
2018-12-12T23:13:06.516Z,2.70
2018-12-12T23:15:35.787Z,2.70
2018-12-12T23:18:05.061Z,2.80
2018-12-12T23:20:34.562Z,2.80
2018-12-12T23:23:03.829Z,2.70
2018-12-12T23:25:33.081Z,2.80
2018-12-12T23:28:02.320Z,2.70
2018-12-12T23:30:31.583Z,2.80
2018-12-12T23:33:00.809Z,2.70
2018-12-12T23:35:30.072Z,2.60
2018-12-12T23:37:59.278Z,2.60
2018-12-12T23:40:28.532Z,2.70
2018-12-12T23:42:57.764Z,2.60
2018-12-12T23:45:27.137Z,2.50
2018-12-12T23:47:56.378Z,2.40
2018-12-12T23:50:25.619Z,2.60
2018-12-12T23:52:54.837Z,2.60
2018-12-12T23:55:24.116Z,2.40
2018-12-12T23:57:53.422Z,2.40
